sensor_id;sensor_type;location;lat;lon;timestamp;P1;durP1;ratioP1;P2;durP2;ratioP2
59038;SDS011;44824;43.376;19.630;2023-02-28T00:00:34;29.13;;;18.13;;
59038;SDS011;44824;43.376;19.630;2023-02-28T00:03:00;30.45;;;18.75;;
59038;SDS011;44824;43.376;19.630;2023-02-28T00:05:27;26.60;;;16.65;;
59038;SDS011;44824;43.376;19.630;2023-02-28T00:07:53;29.35;;;17.60;;
59038;SDS011;44824;43.376;19.630;2023-02-28T00:10:24;26.63;;;17.70;;
59038;SDS011;44824;43.376;19.630;2023-02-28T00:12:51;30.13;;;19.35;;
59038;SDS011;44824;43.376;19.630;2023-02-28T00:15:18;32.55;;;21.50;;
59038;SDS011;44824;43.376;19.630;2023-02-28T00:17:47;34.13;;;21.27;;
59038;SDS011;44824;43.376;19.630;2023-02-28T00:20:16;35.00;;;20.55;;
59038;SDS011;44824;43.376;19.630;2023-02-28T00:22:43;30.20;;;19.77;;
59038;SDS011;44824;43.376;19.630;2023-02-28T00:25:22;29.30;;;17.95;;
59038;SDS011;44824;43.376;19.630;2023-02-28T00:30:16;28.25;;;17.85;;
59038;SDS011;44824;43.376;19.630;2023-02-28T00:32:42;26.83;;;16.90;;
59038;SDS011;44824;43.376;19.630;2023-02-28T00:35:09;28.43;;;16.97;;
59038;SDS011;44824;43.376;19.630;2023-02-28T00:37:35;26.00;;;16.65;;
59038;SDS011;44824;43.376;19.630;2023-02-28T00:43:13;19.25;;;12.25;;
59038;SDS011;44824;43.376;19.630;2023-02-28T00:45:39;19.08;;;11.70;;
59038;SDS011;44824;43.376;19.630;2023-02-28T00:48:05;18.45;;;11.48;;
59038;SDS011;44824;43.376;19.630;2023-02-28T00:50:34;21.00;;;12.98;;
59038;SDS011;44824;43.376;19.630;2023-02-28T00:53:00;21.70;;;12.75;;
59038;SDS011;44824;43.376;19.630;2023-02-28T00:55:32;18.15;;;11.38;;
59038;SDS011;44824;43.376;19.630;2023-02-28T00:57:58;17.45;;;11.18;;
59038;SDS011;44824;43.376;19.630;2023-02-28T01:00:24;20.20;;;12.50;;
59038;SDS011;44824;43.376;19.630;2023-02-28T01:02:50;20.58;;;12.60;;
59038;SDS011;44824;43.376;19.630;2023-02-28T01:05:16;20.58;;;12.63;;
59038;SDS011;44824;43.376;19.630;2023-02-28T01:07:42;21.30;;;13.10;;
59038;SDS011;44824;43.376;19.630;2023-02-28T01:10:11;19.08;;;11.20;;
59038;SDS011;44824;43.376;19.630;2023-02-28T01:12:37;17.77;;;10.88;;
59038;SDS011;44824;43.376;19.630;2023-02-28T01:15:03;17.48;;;10.88;;
59038;SDS011;44824;43.376;19.630;2023-02-28T01:17:29;17.73;;;11.13;;
59038;SDS011;44824;43.376;19.630;2023-02-28T01:19:55;18.10;;;11.48;;
59038;SDS011;44824;43.376;19.630;2023-02-28T01:22:21;18.55;;;11.27;;
59038;SDS011;44824;43.376;19.630;2023-02-28T01:27:35;18.63;;;10.38;;
59038;SDS011;44824;43.376;19.630;2023-02-28T01:30:02;18.00;;;10.90;;
59038;SDS011;44824;43.376;19.630;2023-02-28T01:32:28;18.15;;;11.13;;
59038;SDS011;44824;43.376;19.630;2023-02-28T01:34:54;18.65;;;11.43;;
59038;SDS011;44824;43.376;19.630;2023-02-28T01:37:20;17.40;;;11.10;;
59038;SDS011;44824;43.376;19.630;2023-02-28T01:39:46;19.30;;;11.13;;
59038;SDS011;44824;43.376;19.630;2023-02-28T01:42:12;20.10;;;11.25;;
59038;SDS011;44824;43.376;19.630;2023-02-28T01:47:24;19.08;;;11.77;;
59038;SDS011;44824;43.376;19.630;2023-02-28T01:49:50;20.10;;;12.57;;
59038;SDS011;44824;43.376;19.630;2023-02-28T01:52:29;21.33;;;11.88;;
59038;SDS011;44824;43.376;19.630;2023-02-28T01:54:57;20.35;;;12.07;;
59038;SDS011;44824;43.376;19.630;2023-02-28T01:57:34;18.60;;;11.48;;
59038;SDS011;44824;43.376;19.630;2023-02-28T02:00:25;22.02;;;13.15;;
59038;SDS011;44824;43.376;19.630;2023-02-28T02:02:50;24.77;;;17.25;;
59038;SDS011;44824;43.376;19.630;2023-02-28T02:05:17;22.83;;;13.85;;
59038;SDS011;44824;43.376;19.630;2023-02-28T02:07:45;28.38;;;13.63;;
59038;SDS011;44824;43.376;19.630;2023-02-28T02:10:34;17.02;;;10.43;;
59038;SDS011;44824;43.376;19.630;2023-02-28T02:15:49;14.95;;;9.48;;
59038;SDS011;44824;43.376;19.630;2023-02-28T02:18:39;15.68;;;9.48;;
59038;SDS011;44824;43.376;19.630;2023-02-28T02:39:44;18.35;;;11.43;;
59038;SDS011;44824;43.376;19.630;2023-02-28T02:45:00;17.08;;;10.35;;
59038;SDS011;44824;43.376;19.630;2023-02-28T02:47:27;16.35;;;10.27;;
59038;SDS011;44824;43.376;19.630;2023-02-28T02:49:55;16.75;;;10.25;;
59038;SDS011;44824;43.376;19.630;2023-02-28T02:52:24;17.63;;;10.75;;
59038;SDS011;44824;43.376;19.630;2023-02-28T02:54:54;18.50;;;10.88;;
59038;SDS011;44824;43.376;19.630;2023-02-28T02:57:23;19.65;;;11.20;;
59038;SDS011;44824;43.376;19.630;2023-02-28T02:59:50;17.73;;;10.75;;
59038;SDS011;44824;43.376;19.630;2023-02-28T03:04:45;18.17;;;10.98;;
59038;SDS011;44824;43.376;19.630;2023-02-28T03:07:12;17.45;;;10.27;;
59038;SDS011;44824;43.376;19.630;2023-02-28T03:09:38;17.75;;;11.15;;
59038;SDS011;44824;43.376;19.630;2023-02-28T03:15:16;18.05;;;10.93;;
59038;SDS011;44824;43.376;19.630;2023-02-28T03:28:38;19.02;;;12.07;;
59038;SDS011;44824;43.376;19.630;2023-02-28T03:31:18;19.73;;;12.43;;
59038;SDS011;44824;43.376;19.630;2023-02-28T03:34:33;21.75;;;13.15;;
59038;SDS011;44824;43.376;19.630;2023-02-28T03:36:34;21.70;;;13.55;;
59038;SDS011;44824;43.376;19.630;2023-02-28T03:39:08;18.65;;;10.90;;
59038;SDS011;44824;43.376;19.630;2023-02-28T03:41:46;20.02;;;12.38;;
59038;SDS011;44824;43.376;19.630;2023-02-28T03:44:36;20.00;;;12.25;;
59038;SDS011;44824;43.376;19.630;2023-02-28T03:47:05;20.73;;;13.35;;
59038;SDS011;44824;43.376;19.630;2023-02-28T03:49:42;19.00;;;12.10;;
59038;SDS011;44824;43.376;19.630;2023-02-28T03:52:10;20.60;;;11.80;;
59038;SDS011;44824;43.376;19.630;2023-02-28T03:54:41;21.35;;;12.68;;
59038;SDS011;44824;43.376;19.630;2023-02-28T03:57:20;22.48;;;13.43;;
59038;SDS011;44824;43.376;19.630;2023-02-28T04:00:05;22.02;;;13.57;;
59038;SDS011;44824;43.376;19.630;2023-02-28T04:02:33;22.55;;;13.65;;
59038;SDS011;44824;43.376;19.630;2023-02-28T04:04:59;18.85;;;11.93;;
59038;SDS011;44824;43.376;19.630;2023-02-28T04:07:28;21.65;;;12.65;;
59038;SDS011;44824;43.376;19.630;2023-02-28T04:09:55;21.38;;;13.05;;
59038;SDS011;44824;43.376;19.630;2023-02-28T04:15:11;20.40;;;12.45;;
59038;SDS011;44824;43.376;19.630;2023-02-28T04:17:37;22.27;;;13.15;;
59038;SDS011;44824;43.376;19.630;2023-02-28T04:20:04;23.35;;;13.50;;
59038;SDS011;44824;43.376;19.630;2023-02-28T04:25:00;23.20;;;14.30;;
59038;SDS011;44824;43.376;19.630;2023-02-28T04:27:31;24.60;;;13.68;;
59038;SDS011;44824;43.376;19.630;2023-02-28T04:29:57;23.10;;;12.98;;
59038;SDS011;44824;43.376;19.630;2023-02-28T04:32:27;21.27;;;12.55;;
59038;SDS011;44824;43.376;19.630;2023-02-28T04:34:53;21.50;;;13.25;;
59038;SDS011;44824;43.376;19.630;2023-02-28T04:37:22;21.20;;;12.82;;
59038;SDS011;44824;43.376;19.630;2023-02-28T04:39:52;23.23;;;12.77;;
59038;SDS011;44824;43.376;19.630;2023-02-28T04:42:19;23.92;;;13.65;;
59038;SDS011;44824;43.376;19.630;2023-02-28T04:44:45;25.00;;;13.77;;
59038;SDS011;44824;43.376;19.630;2023-02-28T04:47:12;24.95;;;14.30;;
59038;SDS011;44824;43.376;19.630;2023-02-28T04:49:38;25.27;;;13.55;;
59038;SDS011;44824;43.376;19.630;2023-02-28T04:52:04;22.70;;;13.65;;
59038;SDS011;44824;43.376;19.630;2023-02-28T04:54:32;24.33;;;14.05;;
59038;SDS011;44824;43.376;19.630;2023-02-28T04:56:58;23.88;;;13.45;;
59038;SDS011;44824;43.376;19.630;2023-02-28T04:59:24;24.73;;;13.73;;
59038;SDS011;44824;43.376;19.630;2023-02-28T05:01:50;25.75;;;14.45;;
59038;SDS011;44824;43.376;19.630;2023-02-28T05:04:16;25.35;;;14.30;;
59038;SDS011;44824;43.376;19.630;2023-02-28T05:06:51;26.33;;;15.50;;
59038;SDS011;44824;43.376;19.630;2023-02-28T05:09:17;23.88;;;14.82;;
59038;SDS011;44824;43.376;19.630;2023-02-28T05:17:50;27.67;;;17.25;;
59038;SDS011;44824;43.376;19.630;2023-02-28T05:20:16;27.58;;;16.73;;
59038;SDS011;44824;43.376;19.630;2023-02-28T05:22:45;30.80;;;16.90;;
59038;SDS011;44824;43.376;19.630;2023-02-28T05:25:12;28.33;;;16.25;;
59038;SDS011;44824;43.376;19.630;2023-02-28T05:27:49;28.17;;;16.08;;
59038;SDS011;44824;43.376;19.630;2023-02-28T05:30:15;25.35;;;15.55;;
59038;SDS011;44824;43.376;19.630;2023-02-28T05:32:42;27.10;;;16.40;;
59038;SDS011;44824;43.376;19.630;2023-02-28T05:35:08;28.77;;;16.20;;
59038;SDS011;44824;43.376;19.630;2023-02-28T05:37:35;26.13;;;15.45;;
59038;SDS011;44824;43.376;19.630;2023-02-28T05:40:01;27.10;;;15.70;;
59038;SDS011;44824;43.376;19.630;2023-02-28T05:45:34;26.85;;;16.08;;
59038;SDS011;44824;43.376;19.630;2023-02-28T05:48:01;29.65;;;16.60;;
59038;SDS011;44824;43.376;19.630;2023-02-28T05:50:27;31.17;;;17.90;;
59038;SDS011;44824;43.376;19.630;2023-02-28T05:52:59;25.65;;;15.68;;
59038;SDS011;44824;43.376;19.630;2023-02-28T05:55:28;27.23;;;15.77;;
59038;SDS011;44824;43.376;19.630;2023-02-28T06:03:53;29.08;;;15.18;;
59038;SDS011;44824;43.376;19.630;2023-02-28T06:06:19;26.02;;;15.60;;
59038;SDS011;44824;43.376;19.630;2023-02-28T06:08:46;24.83;;;14.52;;
59038;SDS011;44824;43.376;19.630;2023-02-28T06:11:12;30.48;;;18.30;;
59038;SDS011;44824;43.376;19.630;2023-02-28T06:13:38;28.93;;;16.60;;
59038;SDS011;44824;43.376;19.630;2023-02-28T06:16:04;28.25;;;15.52;;
59038;SDS011;44824;43.376;19.630;2023-02-28T06:18:31;31.85;;;16.52;;
59038;SDS011;44824;43.376;19.630;2023-02-28T06:20:57;29.35;;;17.02;;
59038;SDS011;44824;43.376;19.630;2023-02-28T06:23:23;29.38;;;17.17;;
59038;SDS011;44824;43.376;19.630;2023-02-28T06:25:49;33.67;;;19.13;;
59038;SDS011;44824;43.376;19.630;2023-02-28T06:31:10;33.33;;;18.88;;
59038;SDS011;44824;43.376;19.630;2023-02-28T06:33:37;34.63;;;19.17;;
59038;SDS011;44824;43.376;19.630;2023-02-28T06:36:11;32.75;;;18.50;;
59038;SDS011;44824;43.376;19.630;2023-02-28T06:38:37;29.08;;;18.02;;
59038;SDS011;44824;43.376;19.630;2023-02-28T06:41:04;33.40;;;18.73;;
59038;SDS011;44824;43.376;19.630;2023-02-28T06:43:33;40.73;;;23.20;;
59038;SDS011;44824;43.376;19.630;2023-02-28T06:46:00;28.85;;;17.35;;
59038;SDS011;44824;43.376;19.630;2023-02-28T06:48:32;35.70;;;22.23;;
59038;SDS011;44824;43.376;19.630;2023-02-28T06:51:03;28.48;;;17.33;;
59038;SDS011;44824;43.376;19.630;2023-02-28T06:53:48;33.10;;;19.92;;
59038;SDS011;44824;43.376;19.630;2023-02-28T06:56:19;38.10;;;23.50;;
59038;SDS011;44824;43.376;19.630;2023-02-28T06:59:01;39.80;;;25.40;;
59038;SDS011;44824;43.376;19.630;2023-02-28T07:01:28;33.67;;;21.40;;
59038;SDS011;44824;43.376;19.630;2023-02-28T07:03:54;35.13;;;21.40;;
59038;SDS011;44824;43.376;19.630;2023-02-28T07:06:21;38.78;;;22.65;;
59038;SDS011;44824;43.376;19.630;2023-02-28T07:11:19;40.97;;;26.27;;
59038;SDS011;44824;43.376;19.630;2023-02-28T07:13:55;35.35;;;23.08;;
59038;SDS011;44824;43.376;19.630;2023-02-28T07:16:22;34.15;;;21.95;;
59038;SDS011;44824;43.376;19.630;2023-02-28T07:18:54;31.70;;;20.08;;
59038;SDS011;44824;43.376;19.630;2023-02-28T07:21:20;32.75;;;19.52;;
59038;SDS011;44824;43.376;19.630;2023-02-28T07:23:47;33.50;;;20.45;;
59038;SDS011;44824;43.376;19.630;2023-02-28T07:26:17;34.40;;;21.10;;
59038;SDS011;44824;43.376;19.630;2023-02-28T07:31:41;30.98;;;19.25;;
59038;SDS011;44824;43.376;19.630;2023-02-28T07:34:07;28.50;;;17.15;;
59038;SDS011;44824;43.376;19.630;2023-02-28T07:36:33;30.42;;;17.55;;
59038;SDS011;44824;43.376;19.630;2023-02-28T07:38:59;30.02;;;18.60;;
59038;SDS011;44824;43.376;19.630;2023-02-28T07:41:25;27.92;;;16.58;;
59038;SDS011;44824;43.376;19.630;2023-02-28T07:47:14;43.92;;;25.80;;
59038;SDS011;44824;43.376;19.630;2023-02-28T07:49:40;28.00;;;16.05;;
59038;SDS011;44824;43.376;19.630;2023-02-28T07:52:06;26.08;;;16.20;;
59038;SDS011;44824;43.376;19.630;2023-02-28T07:54:33;24.70;;;15.25;;
59038;SDS011;44824;43.376;19.630;2023-02-28T07:56:59;28.73;;;17.13;;
59038;SDS011;44824;43.376;19.630;2023-02-28T08:02:15;26.65;;;14.88;;
59038;SDS011;44824;43.376;19.630;2023-02-28T08:04:42;25.80;;;15.27;;
59038;SDS011;44824;43.376;19.630;2023-02-28T08:07:08;25.00;;;15.70;;
59038;SDS011;44824;43.376;19.630;2023-02-28T08:09:41;24.08;;;15.20;;
59038;SDS011;44824;43.376;19.630;2023-02-28T08:12:10;28.58;;;16.48;;
59038;SDS011;44824;43.376;19.630;2023-02-28T08:14:37;40.13;;;22.15;;
59038;SDS011;44824;43.376;19.630;2023-02-28T08:19:32;31.00;;;18.85;;
59038;SDS011;44824;43.376;19.630;2023-02-28T08:22:02;40.17;;;23.48;;
59038;SDS011;44824;43.376;19.630;2023-02-28T08:24:45;38.42;;;24.98;;
59038;SDS011;44824;43.376;19.630;2023-02-28T08:27:20;39.38;;;24.23;;
59038;SDS011;44824;43.376;19.630;2023-02-28T08:30:02;40.65;;;26.00;;
59038;SDS011;44824;43.376;19.630;2023-02-28T08:32:28;37.75;;;24.55;;
59038;SDS011;44824;43.376;19.630;2023-02-28T08:34:56;34.92;;;23.25;;
59038;SDS011;44824;43.376;19.630;2023-02-28T08:37:25;33.47;;;20.95;;
59038;SDS011;44824;43.376;19.630;2023-02-28T08:40:03;41.10;;;25.63;;
59038;SDS011;44824;43.376;19.630;2023-02-28T08:42:49;33.17;;;21.23;;
59038;SDS011;44824;43.376;19.630;2023-02-28T08:45:22;30.88;;;19.48;;
59038;SDS011;44824;43.376;19.630;2023-02-28T08:50:39;28.45;;;17.95;;
59038;SDS011;44824;43.376;19.630;2023-02-28T08:53:06;24.42;;;15.43;;
59038;SDS011;44824;43.376;19.630;2023-02-28T08:55:41;23.33;;;14.77;;
59038;SDS011;44824;43.376;19.630;2023-02-28T08:58:07;22.08;;;13.82;;
59038;SDS011;44824;43.376;19.630;2023-02-28T09:03:18;24.67;;;15.95;;
59038;SDS011;44824;43.376;19.630;2023-02-28T09:05:53;23.55;;;14.90;;
59038;SDS011;44824;43.376;19.630;2023-02-28T09:08:19;21.63;;;14.40;;
59038;SDS011;44824;43.376;19.630;2023-02-28T09:10:51;24.88;;;15.77;;
59038;SDS011;44824;43.376;19.630;2023-02-28T09:15:45;22.70;;;14.35;;
59038;SDS011;44824;43.376;19.630;2023-02-28T09:18:11;24.27;;;14.82;;
59038;SDS011;44824;43.376;19.630;2023-02-28T09:20:50;22.43;;;13.90;;
59038;SDS011;44824;43.376;19.630;2023-02-28T09:23:16;21.60;;;14.50;;
59038;SDS011;44824;43.376;19.630;2023-02-28T09:26:03;27.40;;;16.17;;
59038;SDS011;44824;43.376;19.630;2023-02-28T09:34:32;27.15;;;16.63;;
59038;SDS011;44824;43.376;19.630;2023-02-28T09:37:00;33.60;;;19.30;;
59038;SDS011;44824;43.376;19.630;2023-02-28T09:39:26;28.33;;;18.40;;
59038;SDS011;44824;43.376;19.630;2023-02-28T09:41:54;26.83;;;17.00;;
59038;SDS011;44824;43.376;19.630;2023-02-28T09:46:47;23.60;;;14.73;;
59038;SDS011;44824;43.376;19.630;2023-02-28T09:49:15;24.02;;;15.68;;
59038;SDS011;44824;43.376;19.630;2023-02-28T09:51:58;25.85;;;16.55;;
59038;SDS011;44824;43.376;19.630;2023-02-28T09:54:27;25.35;;;16.55;;
59038;SDS011;44824;43.376;19.630;2023-02-28T10:05:14;26.65;;;16.58;;
59038;SDS011;44824;43.376;19.630;2023-02-28T10:22:01;31.85;;;20.98;;
59038;SDS011;44824;43.376;19.630;2023-02-28T10:24:30;30.70;;;19.38;;
59038;SDS011;44824;43.376;19.630;2023-02-28T10:27:01;26.83;;;17.08;;
59038;SDS011;44824;43.376;19.630;2023-02-28T10:29:32;30.20;;;18.38;;
59038;SDS011;44824;43.376;19.630;2023-02-28T10:31:58;23.10;;;16.05;;
59038;SDS011;44824;43.376;19.630;2023-02-28T10:36:52;26.77;;;17.80;;
59038;SDS011;44824;43.376;19.630;2023-02-28T10:39:34;26.90;;;17.40;;
59038;SDS011;44824;43.376;19.630;2023-02-28T10:42:02;29.45;;;19.67;;
59038;SDS011;44824;43.376;19.630;2023-02-28T10:44:33;34.75;;;24.58;;
59038;SDS011;44824;43.376;19.630;2023-02-28T10:46:59;31.52;;;21.65;;
59038;SDS011;44824;43.376;19.630;2023-02-28T10:49:26;50.10;;;35.13;;
59038;SDS011;44824;43.376;19.630;2023-02-28T10:51:55;28.08;;;19.98;;
59038;SDS011;44824;43.376;19.630;2023-02-28T10:54:29;26.05;;;17.20;;
59038;SDS011;44824;43.376;19.630;2023-02-28T11:02:36;25.65;;;16.00;;
59038;SDS011;44824;43.376;19.630;2023-02-28T11:07:55;27.25;;;16.75;;
59038;SDS011;44824;43.376;19.630;2023-02-28T11:10:23;24.33;;;16.15;;
59038;SDS011;44824;43.376;19.630;2023-02-28T11:12:53;25.98;;;17.42;;
59038;SDS011;44824;43.376;19.630;2023-02-28T11:20:52;21.33;;;14.15;;
59038;SDS011;44824;43.376;19.630;2023-02-28T11:23:19;23.55;;;14.98;;
59038;SDS011;44824;43.376;19.630;2023-02-28T11:25:49;24.00;;;16.07;;
59038;SDS011;44824;43.376;19.630;2023-02-28T11:28:23;24.48;;;15.27;;
59038;SDS011;44824;43.376;19.630;2023-02-28T11:31:01;25.92;;;16.25;;
59038;SDS011;44824;43.376;19.630;2023-02-28T11:33:29;24.55;;;15.93;;
59038;SDS011;44824;43.376;19.630;2023-02-28T11:38:21;27.05;;;17.75;;
59038;SDS011;44824;43.376;19.630;2023-02-28T11:51:35;32.55;;;21.67;;
59038;SDS011;44824;43.376;19.630;2023-02-28T11:56:49;32.70;;;18.65;;
59038;SDS011;44824;43.376;19.630;2023-02-28T12:04:17;30.23;;;18.27;;
59038;SDS011;44824;43.376;19.630;2023-02-28T12:06:50;28.42;;;18.23;;
59038;SDS011;44824;43.376;19.630;2023-02-28T12:12:03;25.10;;;15.27;;
59038;SDS011;44824;43.376;19.630;2023-02-28T12:28:12;29.02;;;17.45;;
59038;SDS011;44824;43.376;19.630;2023-02-28T12:30:54;27.65;;;16.25;;
59038;SDS011;44824;43.376;19.630;2023-02-28T12:33:23;29.80;;;17.77;;
59038;SDS011;44824;43.376;19.630;2023-02-28T12:35:54;29.33;;;18.02;;
59038;SDS011;44824;43.376;19.630;2023-02-28T12:41:12;27.27;;;16.92;;
59038;SDS011;44824;43.376;19.630;2023-02-28T12:43:42;27.70;;;17.67;;
59038;SDS011;44824;43.376;19.630;2023-02-28T12:46:14;31.45;;;19.05;;
59038;SDS011;44824;43.376;19.630;2023-02-28T12:51:08;36.53;;;21.70;;
59038;SDS011;44824;43.376;19.630;2023-02-28T12:59:20;33.67;;;22.55;;
59038;SDS011;44824;43.376;19.630;2023-02-28T13:01:52;30.90;;;19.63;;
59038;SDS011;44824;43.376;19.630;2023-02-28T13:09:23;27.48;;;15.27;;
59038;SDS011;44824;43.376;19.630;2023-02-28T13:11:50;28.55;;;15.70;;
59038;SDS011;44824;43.376;19.630;2023-02-28T13:19:32;25.73;;;16.73;;
59038;SDS011;44824;43.376;19.630;2023-02-28T13:21:59;27.42;;;16.20;;
59038;SDS011;44824;43.376;19.630;2023-02-28T13:24:36;29.30;;;18.45;;
59038;SDS011;44824;43.376;19.630;2023-02-28T13:29:37;33.93;;;18.00;;
59038;SDS011;44824;43.376;19.630;2023-02-28T13:34:35;31.65;;;18.05;;
59038;SDS011;44824;43.376;19.630;2023-02-28T13:47:29;36.42;;;20.50;;
59038;SDS011;44824;43.376;19.630;2023-02-28T13:58:08;31.45;;;20.60;;
59038;SDS011;44824;43.376;19.630;2023-02-28T14:06:48;29.33;;;18.27;;
59038;SDS011;44824;43.376;19.630;2023-02-28T14:11:48;34.58;;;20.15;;
59038;SDS011;44824;43.376;19.630;2023-02-28T14:17:03;35.58;;;20.50;;
59038;SDS011;44824;43.376;19.630;2023-02-28T14:19:31;34.85;;;22.30;;
59038;SDS011;44824;43.376;19.630;2023-02-28T14:26:58;44.75;;;24.92;;
59038;SDS011;44824;43.376;19.630;2023-02-28T14:35:26;34.28;;;21.17;;
59038;SDS011;44824;43.376;19.630;2023-02-28T14:37:54;38.33;;;21.90;;
59038;SDS011;44824;43.376;19.630;2023-02-28T14:43:19;35.15;;;22.17;;
59038;SDS011;44824;43.376;19.630;2023-02-28T14:46:01;41.13;;;23.05;;
59038;SDS011;44824;43.376;19.630;2023-02-28T14:48:34;42.38;;;23.52;;
59038;SDS011;44824;43.376;19.630;2023-02-28T14:51:04;33.13;;;19.98;;
59038;SDS011;44824;43.376;19.630;2023-02-28T14:53:37;38.65;;;20.38;;
59038;SDS011;44824;43.376;19.630;2023-02-28T14:56:17;39.00;;;21.45;;
59038;SDS011;44824;43.376;19.630;2023-02-28T14:58:53;37.78;;;23.23;;
59038;SDS011;44824;43.376;19.630;2023-02-28T16:10:22;41.25;;;23.17;;
59038;SDS011;44824;43.376;19.630;2023-02-28T16:12:52;54.60;;;31.70;;
59038;SDS011;44824;43.376;19.630;2023-02-28T16:15:26;48.42;;;28.23;;
59038;SDS011;44824;43.376;19.630;2023-02-28T16:17:54;40.05;;;22.30;;
59038;SDS011;44824;43.376;19.630;2023-02-28T16:20:21;48.92;;;27.58;;
59038;SDS011;44824;43.376;19.630;2023-02-28T18:12:42;39.25;;;23.15;;
59038;SDS011;44824;43.376;19.630;2023-02-28T18:15:08;36.85;;;21.92;;
59038;SDS011;44824;43.376;19.630;2023-02-28T18:17:41;42.45;;;22.63;;
59038;SDS011;44824;43.376;19.630;2023-02-28T18:20:16;41.60;;;22.50;;
59038;SDS011;44824;43.376;19.630;2023-02-28T18:22:45;39.95;;;21.77;;
59038;SDS011;44824;43.376;19.630;2023-02-28T18:25:12;44.72;;;24.20;;
59038;SDS011;44824;43.376;19.630;2023-02-28T18:27:40;45.13;;;24.50;;
59038;SDS011;44824;43.376;19.630;2023-02-28T18:30:27;47.63;;;25.98;;
59038;SDS011;44824;43.376;19.630;2023-02-28T18:32:55;48.47;;;24.02;;
59038;SDS011;44824;43.376;19.630;2023-02-28T18:35:22;44.60;;;25.20;;
59038;SDS011;44824;43.376;19.630;2023-02-28T18:38:05;40.60;;;23.15;;
59038;SDS011;44824;43.376;19.630;2023-02-28T18:40:50;46.22;;;22.88;;
59038;SDS011;44824;43.376;19.630;2023-02-28T18:43:26;39.83;;;19.67;;
59038;SDS011;44824;43.376;19.630;2023-02-28T18:45:55;39.25;;;20.42;;
59038;SDS011;44824;43.376;19.630;2023-02-28T18:48:21;38.13;;;19.92;;
59038;SDS011;44824;43.376;19.630;2023-02-28T18:50:48;38.75;;;20.20;;
59038;SDS011;44824;43.376;19.630;2023-02-28T18:53:14;45.47;;;25.55;;
59038;SDS011;44824;43.376;19.630;2023-02-28T18:55:41;37.60;;;21.30;;
59038;SDS011;44824;43.376;19.630;2023-02-28T18:58:07;37.88;;;21.35;;
59038;SDS011;44824;43.376;19.630;2023-02-28T19:00:39;37.60;;;20.35;;
59038;SDS011;44824;43.376;19.630;2023-02-28T19:03:05;37.63;;;21.63;;
59038;SDS011;44824;43.376;19.630;2023-02-28T19:05:31;35.80;;;19.13;;
59038;SDS011;44824;43.376;19.630;2023-02-28T19:08:02;35.63;;;19.98;;
59038;SDS011;44824;43.376;19.630;2023-02-28T19:10:28;33.83;;;18.33;;
59038;SDS011;44824;43.376;19.630;2023-02-28T19:12:55;37.70;;;19.67;;
59038;SDS011;44824;43.376;19.630;2023-02-28T19:15:24;35.42;;;20.08;;
59038;SDS011;44824;43.376;19.630;2023-02-28T19:17:50;57.58;;;31.13;;
59038;SDS011;44824;43.376;19.630;2023-02-28T19:20:16;38.28;;;21.40;;
59038;SDS011;44824;43.376;19.630;2023-02-28T19:22:42;39.83;;;21.75;;
59038;SDS011;44824;43.376;19.630;2023-02-28T19:25:08;40.47;;;22.25;;
59038;SDS011;44824;43.376;19.630;2023-02-28T19:27:34;37.70;;;21.35;;
59038;SDS011;44824;43.376;19.630;2023-02-28T19:30:00;37.20;;;20.77;;
59038;SDS011;44824;43.376;19.630;2023-02-28T19:34:54;36.22;;;18.17;;
59038;SDS011;44824;43.376;19.630;2023-02-28T19:37:20;33.88;;;18.13;;
59038;SDS011;44824;43.376;19.630;2023-02-28T19:40:08;36.00;;;20.35;;
59038;SDS011;44824;43.376;19.630;2023-02-28T19:42:50;32.25;;;18.10;;
59038;SDS011;44824;43.376;19.630;2023-02-28T19:45:19;37.17;;;18.80;;
59038;SDS011;44824;43.376;19.630;2023-02-28T19:50:56;33.75;;;16.45;;
59038;SDS011;44824;43.376;19.630;2023-02-28T19:53:44;33.08;;;16.90;;
59038;SDS011;44824;43.376;19.630;2023-02-28T19:56:10;35.20;;;18.30;;
59038;SDS011;44824;43.376;19.630;2023-02-28T19:58:52;32.35;;;19.27;;
59038;SDS011;44824;43.376;19.630;2023-02-28T20:01:21;31.20;;;17.17;;
59038;SDS011;44824;43.376;19.630;2023-02-28T20:04:03;35.80;;;19.42;;
59038;SDS011;44824;43.376;19.630;2023-02-28T20:06:35;32.83;;;17.75;;
59038;SDS011;44824;43.376;19.630;2023-02-28T20:09:01;33.75;;;17.65;;
59038;SDS011;44824;43.376;19.630;2023-02-28T20:11:39;31.00;;;16.88;;
59038;SDS011;44824;43.376;19.630;2023-02-28T20:19:18;29.20;;;16.65;;
59038;SDS011;44824;43.376;19.630;2023-02-28T20:21:48;31.90;;;17.15;;
59038;SDS011;44824;43.376;19.630;2023-02-28T20:24:17;30.67;;;16.55;;
59038;SDS011;44824;43.376;19.630;2023-02-28T20:26:48;26.58;;;14.50;;
59038;SDS011;44824;43.376;19.630;2023-02-28T20:29:17;33.03;;;17.65;;
59038;SDS011;44824;43.376;19.630;2023-02-28T20:31:49;31.38;;;17.45;;
59038;SDS011;44824;43.376;19.630;2023-02-28T20:34:15;28.70;;;16.33;;
59038;SDS011;44824;43.376;19.630;2023-02-28T20:36:42;33.15;;;17.48;;
59038;SDS011;44824;43.376;19.630;2023-02-28T20:39:11;34.30;;;19.23;;
59038;SDS011;44824;43.376;19.630;2023-02-28T20:41:55;28.05;;;15.52;;
59038;SDS011;44824;43.376;19.630;2023-02-28T20:44:33;30.33;;;15.65;;
59038;SDS011;44824;43.376;19.630;2023-02-28T20:49:59;29.67;;;17.13;;
59038;SDS011;44824;43.376;19.630;2023-02-28T20:52:34;25.80;;;14.88;;
59038;SDS011;44824;43.376;19.630;2023-02-28T20:55:00;34.28;;;19.95;;
59038;SDS011;44824;43.376;19.630;2023-02-28T20:57:29;27.83;;;16.17;;
59038;SDS011;44824;43.376;19.630;2023-02-28T21:00:07;29.95;;;16.90;;
59038;SDS011;44824;43.376;19.630;2023-02-28T21:05:37;29.60;;;17.83;;
59038;SDS011;44824;43.376;19.630;2023-02-28T21:08:04;32.35;;;18.38;;
59038;SDS011;44824;43.376;19.630;2023-02-28T21:10:30;30.55;;;17.40;;
59038;SDS011;44824;43.376;19.630;2023-02-28T21:12:56;30.92;;;18.05;;
59038;SDS011;44824;43.376;19.630;2023-02-28T21:15:23;31.27;;;15.50;;
59038;SDS011;44824;43.376;19.630;2023-02-28T21:20:55;30.20;;;17.20;;
59038;SDS011;44824;43.376;19.630;2023-02-28T21:23:30;25.50;;;14.75;;
59038;SDS011;44824;43.376;19.630;2023-02-28T21:28:48;31.60;;;17.48;;
59038;SDS011;44824;43.376;19.630;2023-02-28T21:31:33;30.55;;;16.73;;
59038;SDS011;44824;43.376;19.630;2023-02-28T21:37:05;41.70;;;23.60;;
59038;SDS011;44824;43.376;19.630;2023-02-28T21:39:44;38.53;;;23.00;;
59038;SDS011;44824;43.376;19.630;2023-02-28T21:49:53;40.72;;;20.85;;
59038;SDS011;44824;43.376;19.630;2023-02-28T21:52:19;38.70;;;21.17;;
59038;SDS011;44824;43.376;19.630;2023-02-28T21:54:46;45.78;;;25.27;;
59038;SDS011;44824;43.376;19.630;2023-02-28T21:57:12;43.40;;;24.77;;
59038;SDS011;44824;43.376;19.630;2023-02-28T21:59:40;48.38;;;27.20;;
59038;SDS011;44824;43.376;19.630;2023-02-28T22:02:08;78.90;;;38.27;;
59038;SDS011;44824;43.376;19.630;2023-02-28T22:04:58;72.70;;;37.22;;
59038;SDS011;44824;43.376;19.630;2023-02-28T22:07:27;47.65;;;26.65;;